sensor_id;sensor_type;location;lat;lon;timestamp;pressure;altitude;pressure_sealevel;temperature;humidity
60719;BME280;46567;51.660;5.824;2022-09-30T00:38:00;100750.0;;;7.4;81.0
60719;BME280;46567;51.660;5.824;2022-09-30T01:58:08;100740.0;;;6.7;82.0
60719;BME280;46567;51.660;5.824;2022-09-30T02:18:06;100760.0;;;6.5;82.0
60719;BME280;46567;51.660;5.824;2022-09-30T02:39:06;100770.0;;;6.3;82.0
60719;BME280;46567;51.660;5.824;2022-09-30T03:19:23;100770.0;;;6.2;83.0
60719;BME280;46567;51.660;5.824;2022-09-30T04:18:45;100820.0;;;5.8;83.0
60719;BME280;46567;51.660;5.824;2022-09-30T04:38:45;100850.0;;;5.6;83.0
60719;BME280;46567;51.660;5.824;2022-09-30T04:58:00;100870.0;;;5.5;83.0
60719;BME280;46567;51.660;5.824;2022-09-30T05:18:00;100890.0;;;5.4;83.5
60719;BME280;46567;51.660;5.824;2022-09-30T06:18:00;100950.0;;;5.6;84.0
60719;BME280;46567;51.660;5.824;2022-09-30T06:39:30;100960.0;;;6.0;84.0
60719;BME280;46567;51.660;5.824;2022-09-30T06:58:45;100960.0;;;7.4;85.0
60719;BME280;46567;51.660;5.824;2022-09-30T07:18:45;100950.0;;;8.6;85.0
60719;BME280;46567;51.660;5.824;2022-09-30T07:38:00;100960.0;;;9.4;85.0
60719;BME280;46567;51.660;5.824;2022-09-30T07:58:00;100960.0;;;10.3;85.0
60719;BME280;46567;51.660;5.824;2022-09-30T08:18:00;100960.0;;;11.0;85.0
60719;BME280;46567;51.660;5.824;2022-09-30T08:59:32;100950.0;;;12.9;83.5
60719;BME280;46567;51.660;5.824;2022-09-30T09:18:21;100950.0;;;13.7;82.5
60719;BME280;46567;51.660;5.824;2022-09-30T09:38:30;100950.0;;;14.6;81.0
60719;BME280;46567;51.660;5.824;2022-09-30T09:58:10;100970.0;;;15.4;79.0
60719;BME280;46567;51.660;5.824;2022-09-30T10:18:00;100960.0;;;15.9;76.5
60719;BME280;46567;51.660;5.824;2022-09-30T10:38:00;100950.0;;;16.4;74.5
60719;BME280;46567;51.660;5.824;2022-09-30T10:58:21;100950.0;;;16.9;73.0
60719;BME280;46567;51.660;5.824;2022-09-30T11:18:04;100940.0;;;17.3;71.5
60719;BME280;46567;51.660;5.824;2022-09-30T11:39:23;100940.0;;;17.8;70.0
60719;BME280;46567;51.660;5.824;2022-09-30T11:58:19;100920.0;;;18.2;68.0
60719;BME280;46567;51.660;5.824;2022-09-30T12:18:12;100910.0;;;18.7;65.5
60719;BME280;46567;51.660;5.824;2022-09-30T12:40:03;100880.0;;;18.5;64.0
60719;BME280;46567;51.660;5.824;2022-09-30T12:58:00;100870.0;;;18.2;63.0
60719;BME280;46567;51.660;5.824;2022-09-30T13:38:20;100840.0;;;18.3;63.5
60719;BME280;46567;51.660;5.824;2022-09-30T13:58:15;100830.0;;;18.9;61.5
60719;BME280;46567;51.660;5.824;2022-09-30T14:20:45;100800.0;;;19.0;61.0
60719;BME280;46567;51.660;5.824;2022-09-30T14:38:04;100790.0;;;19.0;61.0
60719;BME280;46567;51.660;5.824;2022-09-30T14:58:22;100780.0;;;18.8;61.0
60719;BME280;46567;51.660;5.824;2022-09-30T15:18:21;100770.0;;;18.5;60.5
60719;BME280;46567;51.660;5.824;2022-09-30T15:38:09;100780.0;;;18.3;60.5
60719;BME280;46567;51.660;5.824;2022-09-30T15:58:00;100780.0;;;18.4;61.0
60719;BME280;46567;51.660;5.824;2022-09-30T16:18:00;100780.0;;;17.9;61.0
60719;BME280;46567;51.660;5.824;2022-09-30T16:38:02;100770.0;;;17.3;62.0
60719;BME280;46567;51.660;5.824;2022-09-30T16:58:00;100770.0;;;16.7;63.5
60719;BME280;46567;51.660;5.824;2022-09-30T17:18:03;100770.0;;;16.0;64.5
60719;BME280;46567;51.660;5.824;2022-09-30T17:38:00;100760.0;;;15.3;65.5
60719;BME280;46567;51.660;5.824;2022-09-30T17:58:00;100750.0;;;14.9;66.5
60719;BME280;46567;51.660;5.824;2022-09-30T18:18:00;100750.0;;;14.6;67.0
60719;BME280;46567;51.660;5.824;2022-09-30T18:38:00;100750.0;;;14.2;68.0
60719;BME280;46567;51.660;5.824;2022-09-30T18:58:00;100730.0;;;14.0;68.0
60719;BME280;46567;51.660;5.824;2022-09-30T19:18:00;100710.0;;;13.9;68.5
60719;BME280;46567;51.660;5.824;2022-09-30T19:38:00;100680.0;;;13.9;69.0
60719;BME280;46567;51.660;5.824;2022-09-30T19:58:00;100670.0;;;14.0;69.0
60719;BME280;46567;51.660;5.824;2022-09-30T20:18:00;100610.0;;;14.2;69.0
60719;BME280;46567;51.660;5.824;2022-09-30T20:38:00;100570.0;;;14.3;69.0
60719;BME280;46567;51.660;5.824;2022-09-30T20:58:00;100550.0;;;14.4;68.5
60719;BME280;46567;51.660;5.824;2022-09-30T21:18:00;100530.0;;;14.4;68.0
60719;BME280;46567;51.660;5.824;2022-09-30T21:38:00;100520.0;;;14.4;68.5
60719;BME280;46567;51.660;5.824;2022-09-30T21:58:00;100510.0;;;14.4;68.5
60719;BME280;46567;51.660;5.824;2022-09-30T22:18:00;100490.0;;;14.4;69.0
60719;BME280;46567;51.660;5.824;2022-09-30T22:38:00;100480.0;;;14.2;70.5
60719;BME280;46567;51.660;5.824;2022-09-30T23:38:00;100330.0;;;13.1;77.5
